createdAt,value
2022-10-24T10:12:32.226Z,65.073997
2022-10-24T10:13:41.935Z,65.080002
2022-10-24T10:14:50.588Z,65.194
2022-10-24T10:16:00.267Z,65.378998
2022-10-24T10:17:08.935Z,65.470001
2022-10-24T10:18:17.541Z,65.398003
2022-10-24T10:19:26.206Z,65.521004
2022-10-24T10:20:34.794Z,65.596001
2022-10-24T10:21:44.402Z,65.596001
2022-10-24T10:22:53.058Z,65.787003
2022-10-24T10:24:01.097Z,65.792999
2022-10-24T10:25:11.313Z,65.955002
2022-10-24T10:26:20.862Z,65.928001
2022-10-24T10:27:30.457Z,66.005997
2022-10-24T10:28:39.097Z,66.191002
2022-10-24T10:29:48.997Z,66.285004
2022-10-24T10:30:58.623Z,66.335999
2022-10-24T10:32:06.400Z,66.362
2022-10-24T10:33:13.055Z,66.329002
2022-10-24T10:34:22.611Z,66.338997
2022-10-24T10:35:31.191Z,66.376999
2022-10-24T10:36:39.852Z,66.317001
2022-10-24T10:37:49.411Z,66.337997
2022-10-24T10:38:58.010Z,66.350998
2022-10-24T10:40:07.806Z,66.336998
2022-10-24T10:41:16.393Z,66.375
2022-10-24T10:42:24.048Z,66.278999
2022-10-24T10:43:33.632Z,66.207001
2022-10-24T10:44:43.252Z,66.217003
2022-10-24T10:45:51.856Z,66.195999
2022-10-24T10:47:00.421Z,66.182999
2022-10-24T10:48:08.979Z,66.183998
2022-10-24T10:49:17.595Z,66.156998
2022-10-24T10:50:26.162Z,66.126999
2022-10-24T10:51:33.721Z,66.139
2022-10-24T10:52:43.674Z,66.157997
2022-10-24T10:53:52.018Z,66.151001
2022-10-24T10:55:00.580Z,66.088997
2022-10-24T10:56:10.177Z,66.068001
2022-10-24T10:57:19.787Z,66.038002
2022-10-24T10:58:30.421Z,65.973
2022-10-24T10:59:38.942Z,65.903
2022-10-24T11:00:48.611Z,65.915001
2022-10-24T11:01:58.243Z,65.946999
2022-10-24T11:03:06.623Z,65.927002
2022-10-24T11:04:15.229Z,65.913002
2022-10-24T11:05:23.797Z,65.889
2022-10-24T11:06:33.373Z,65.872002
2022-10-24T11:07:43.121Z,65.878998
2022-10-24T11:08:50.760Z,65.872002
2022-10-24T11:09:59.555Z,65.851997
2022-10-24T11:11:09.153Z,65.876999
2022-10-24T11:12:16.710Z,65.865997
2022-10-24T11:13:25.404Z,65.872002
2022-10-24T11:14:35.978Z,65.845001
2022-10-24T11:15:43.527Z,65.799004
2022-10-24T11:16:53.099Z,65.776001
2022-10-24T11:18:02.654Z,65.763
2022-10-24T11:19:12.223Z,65.750999
2022-10-24T11:20:20.795Z,65.724998
2022-10-24T11:21:29.348Z,65.692001
2022-10-24T11:22:37.927Z,65.684998
2022-10-24T11:23:47.498Z,65.655998
2022-10-24T11:24:55.061Z,65.615997
2022-10-24T11:26:03.609Z,65.601997
2022-10-24T11:27:13.193Z,65.588997
2022-10-24T11:28:21.837Z,65.565002
2022-10-24T11:29:30.462Z,65.505997
2022-10-24T11:30:41.621Z,65.477997
2022-10-24T11:31:49.656Z,65.424004
2022-10-24T11:32:59.287Z,65.362999
2022-10-24T11:34:12.067Z,65.295998
2022-10-24T11:35:21.479Z,65.247002
2022-10-24T11:36:31.850Z,65.217003
2022-10-24T11:37:44.827Z,65.086998
2022-10-24T11:38:54.205Z,65.030998
2022-10-24T11:40:04.480Z,65.004997
2022-10-24T11:41:14.521Z,64.917
2022-10-24T11:42:25.744Z,64.830002
2022-10-24T11:43:35.653Z,64.759003
2022-10-24T11:44:49.862Z,64.723
2022-10-24T11:46:02.486Z,64.664001
2022-10-24T11:47:13.416Z,64.627998
2022-10-24T11:48:24.794Z,64.588997
2022-10-24T11:49:35.030Z,64.555
2022-10-24T11:50:46.387Z,64.494003
2022-10-24T11:52:00.962Z,64.426003
2022-10-24T11:53:13.745Z,64.398003
2022-10-24T11:54:39.189Z,64.378998
2022-10-24T11:55:50.941Z,64.318001
2022-10-24T11:57:06.907Z,64.291
2022-10-24T11:58:17.648Z,64.236
2022-10-24T11:59:29.105Z,64.222
2022-10-24T12:00:36.805Z,64.195999
2022-10-24T12:01:47.029Z,64.164001
2022-10-24T12:02:55.893Z,64.113998
2022-10-24T12:04:05.531Z,64.083
2022-10-24T12:05:18.001Z,64.051003
2022-10-24T12:06:24.640Z,64.040001
2022-10-24T12:07:33.218Z,64.052002
2022-10-24T12:08:43.020Z,64.019997
2022-10-24T12:09:52.803Z,63.971001
2022-10-24T12:11:02.476Z,63.951
2022-10-24T12:12:11.089Z,63.938
2022-10-24T12:13:18.698Z,63.905998
2022-10-24T12:14:28.330Z,63.912998
2022-10-24T12:15:39.050Z,63.896
2022-10-24T12:16:46.809Z,63.856998
2022-10-24T12:17:56.410Z,63.838001
2022-10-24T12:19:06.207Z,63.826
2022-10-24T12:20:16.048Z,63.813
2022-10-24T12:21:26.203Z,63.799999
2022-10-24T12:22:35.464Z,63.793999
2022-10-24T12:23:45.366Z,63.766998
2022-10-24T12:24:54.057Z,63.726002
2022-10-24T12:26:05.908Z,63.706001
2022-10-24T12:27:18.531Z,63.68
2022-10-24T12:28:29.667Z,63.667
2022-10-24T12:29:41.521Z,63.672001
2022-10-24T12:32:00.249Z,63.618
2022-10-24T12:33:10.621Z,63.612
2022-10-24T12:34:19.674Z,63.598999
2022-10-24T12:35:32.565Z,63.578999
2022-10-24T12:36:43.801Z,63.541
2022-10-24T12:37:54.327Z,63.535999
2022-10-24T12:39:04.063Z,63.535999
2022-10-24T12:40:13.283Z,63.485001
2022-10-24T12:41:23.307Z,63.417999
2022-10-24T12:42:33.266Z,63.484001
2022-10-24T12:43:42.034Z,63.528999
2022-10-24T12:44:52.072Z,63.478001
2022-10-24T12:46:00.818Z,63.484001
2022-10-24T12:47:10.397Z,63.467999
2022-10-24T12:48:20.031Z,63.478001
2022-10-24T12:49:27.630Z,63.478001
2022-10-24T12:50:37.534Z,63.467999
2022-10-24T12:51:47.162Z,63.460999
2022-10-24T12:52:55.741Z,63.435001
2022-10-24T12:54:05.355Z,63.435001
2022-10-24T12:55:15.922Z,63.428001
2022-10-24T12:56:24.537Z,63.422001
2022-10-24T12:57:36.108Z,63.403
2022-10-24T12:58:43.741Z,63.382999
2022-10-24T12:59:52.405Z,63.375
2022-10-24T13:01:02.083Z,63.367001
2022-10-24T13:02:10.843Z,63.354
2022-10-24T13:03:19.600Z,63.341
2022-10-24T13:04:27.265Z,63.314999
2022-10-24T13:05:35.838Z,63.314999
2022-10-24T13:06:46.181Z,63.289001
2022-10-24T13:07:55.363Z,63.283001
2022-10-24T13:09:04.645Z,63.271
2022-10-24T13:10:13.247Z,63.264999
2022-10-24T13:11:23.496Z,63.251999
2022-10-24T13:12:32.078Z,63.223999
2022-10-24T13:13:41.698Z,63.210999
2022-10-24T13:14:49.332Z,63.203999
2022-10-24T13:15:57.221Z,63.203999
2022-10-24T13:17:09.576Z,63.178001
2022-10-24T13:18:19.261Z,63.153
2022-10-24T13:19:29.938Z,63.153
2022-10-24T13:20:40.605Z,63.126999
2022-10-24T13:21:51.504Z,63.123001
2022-10-24T13:23:01.300Z,63.097
2022-10-24T13:24:11.689Z,63.097
2022-10-24T13:25:19.818Z,63.064999
2022-10-24T13:26:30.802Z,63.058998
2022-10-24T13:27:39.982Z,63.058998
2022-10-24T13:28:48.553Z,63.051998
2022-10-24T13:29:58.932Z,63.028999
2022-10-24T13:31:08.768Z,63.015999
2022-10-24T13:32:21.807Z,63.002998
2022-10-24T13:33:32.258Z,63.007999
2022-10-24T13:34:39.838Z,62.988998
2022-10-24T13:35:49.397Z,62.963001
2022-10-24T13:36:59.067Z,62.944
2022-10-24T13:38:08.664Z,62.926998
2022-10-24T13:39:17.227Z,62.921001
2022-10-24T13:40:26.867Z,62.914001
2022-10-24T13:41:36.486Z,62.895
2022-10-24T13:42:45.325Z,62.875
2022-10-24T13:43:52.709Z,62.875
2022-10-24T13:45:02.373Z,62.849998
2022-10-24T13:46:13.169Z,62.827999
2022-10-24T13:47:19.661Z,62.808998
2022-10-24T13:48:29.249Z,62.790001
2022-10-24T13:49:37.827Z,62.801998
2022-10-24T13:50:47.474Z,62.796001
2022-10-24T13:51:55.150Z,62.764
2022-10-24T13:53:04.790Z,62.750999
2022-10-24T13:54:14.361Z,62.744999
2022-10-24T13:55:22.908Z,62.737999
2022-10-24T13:56:31.460Z,62.724998
2022-10-24T13:57:40.029Z,62.702999
2022-10-24T13:58:48.612Z,62.688999
2022-10-24T13:59:58.721Z,62.688999
2022-10-24T14:01:07.347Z,62.664001
2022-10-24T14:02:14.858Z,62.669998
2022-10-24T14:03:24.736Z,62.651001
2022-10-24T14:04:33.257Z,62.644001
2022-10-24T14:05:41.954Z,62.631001
2022-10-24T14:06:51.685Z,62.620998
2022-10-24T14:08:00.262Z,62.620998
2022-10-24T14:09:09.889Z,62.608002
2022-10-24T14:10:19.492Z,62.589001
2022-10-24T14:11:27.097Z,62.589001
2022-10-24T14:12:36.686Z,62.571999
2022-10-24T14:13:45.317Z,62.547001
2022-10-24T14:14:54.921Z,62.547001
2022-10-24T14:16:03.487Z,62.534
2022-10-24T14:17:13.063Z,62.539001
2022-10-24T14:18:23.623Z,62.526001
2022-10-24T14:19:32.485Z,62.52
2022-10-24T14:20:39.725Z,62.466
2022-10-24T14:21:49.324Z,62.479
2022-10-24T14:22:59.123Z,62.544998
2022-10-24T14:24:07.630Z,62.513
2022-10-24T14:25:18.706Z,62.521999
2022-10-24T14:26:26.016Z,62.502998
2022-10-24T14:27:35.542Z,62.502998
2022-10-24T14:28:44.191Z,62.471001
2022-10-24T14:29:51.835Z,62.521999
2022-10-24T14:31:01.461Z,62.493999
2022-10-24T14:32:11.851Z,62.472
2022-10-24T14:33:21.733Z,62.533001
2022-10-24T14:34:35.312Z,62.513
2022-10-24T14:35:39.191Z,62.466
2022-10-24T14:36:48.845Z,62.480999
2022-10-24T14:37:56.621Z,62.466
2022-10-24T14:39:05.323Z,62.480999
2022-10-24T14:40:14.878Z,62.452999
2022-10-24T14:41:26.238Z,62.478001
2022-10-24T14:42:33.082Z,62.525002
2022-10-24T14:43:41.969Z,62.525002
2022-10-24T14:44:52.030Z,62.484001
2022-10-24T14:46:01.120Z,62.484001
2022-10-24T14:47:09.147Z,62.471001
2022-10-24T14:48:16.995Z,62.478001
2022-10-24T14:49:26.730Z,62.458
2022-10-24T14:50:35.446Z,62.445999
2022-10-24T14:51:45.150Z,62.419998
2022-10-24T14:52:53.748Z,62.407001
2022-10-24T14:54:01.793Z,62.426998
2022-10-24T14:55:11.398Z,62.414001
2022-10-24T14:56:18.992Z,62.419998
2022-10-24T14:57:28.575Z,62.397999
2022-10-24T14:58:38.162Z,62.384998
2022-10-24T14:59:47.749Z,62.383999
2022-10-24T15:00:56.574Z,62.390999
2022-10-24T15:02:06.581Z,62.377998
2022-10-24T15:03:15.452Z,62.370998
2022-10-24T15:04:25.081Z,62.370998
2022-10-24T15:05:32.883Z,62.365002
2022-10-24T15:06:41.521Z,62.377998
2022-10-24T15:08:09.607Z,62.377998
2022-10-24T15:09:04.798Z,62.370998
2022-10-24T15:10:13.729Z,62.370998
2022-10-24T15:11:23.300Z,62.389
2022-10-24T15:12:31.043Z,62.363998
2022-10-24T15:13:40.731Z,62.375999
2022-10-24T15:14:51.324Z,62.356998
2022-10-24T15:16:00.042Z,62.363998
2022-10-24T15:17:08.638Z,62.334999
2022-10-24T15:18:17.291Z,62.356998
2022-10-24T15:19:25.872Z,62.360001
2022-10-24T15:20:35.464Z,62.354
2022-10-24T15:21:43.026Z,62.354
2022-10-24T15:22:50.603Z,62.334
2022-10-24T15:24:00.218Z,62.360001
2022-10-24T15:25:09.134Z,62.334
2022-10-24T15:26:17.438Z,62.354
2022-10-24T15:27:25.884Z,62.341
2022-10-24T15:28:35.544Z,62.341
2022-10-24T15:29:45.109Z,62.320999
2022-10-24T15:30:53.690Z,62.327999
2022-10-24T15:32:01.642Z,62.327999
2022-10-24T15:33:11.240Z,62.327999
2022-10-24T15:34:23.106Z,62.341
2022-10-24T15:35:31.863Z,62.320999
2022-10-24T15:36:40.411Z,62.248001
2022-10-24T15:37:49.472Z,62.32
2022-10-24T15:38:59.032Z,62.306999
2022-10-24T15:40:06.610Z,62.313999
2022-10-24T15:41:14.159Z,62.292
2022-10-24T15:42:23.733Z,62.278999
2022-10-24T15:43:33.301Z,62.09
2022-10-24T15:44:43.354Z,62.032001
2022-10-24T15:45:52.953Z,61.998001
